Herald, Illinois
Current Conditions -  °F | °C
As of 5:35 PM on Friday 31 Oct 2014 (Local Time) from KCUL Reporting Station
Broken Clouds Broken Clouds  
Wind Chill: 37°   Ceiling: 5500
Heat Index: 45°   Visibility: 10mi
Dew Point: 28°   Wind: 22mph
Humidity: 50%   Direction: 330°NNW
Pressure: 30.2"   Gusts: 35mph
Location:  37.97°N, 88.18°W
Report Text: KCUL 312235Z AUTO 33019G30KT 10SM BKN055 07/M02 A3020 RMK AO2 T00731025
Loading
Personal Weather Stations






























Interactive Weather Map
Tropical Storm Tracking
New forecast layout! Learn more

10-Day Weather Forecast

Advertisements
Track Severe Weather on mobile